createdAt,value
2018-07-30T00:02:03.931Z,100406.52
2018-07-30T00:04:32.007Z,100406.44
2018-07-30T00:07:00.064Z,100404.20
2018-07-30T00:09:28.135Z,100405.59
2018-07-30T00:11:56.278Z,100407.50
2018-07-30T00:14:24.338Z,100411.29
2018-07-30T00:16:52.503Z,100417.73
2018-07-30T00:19:20.571Z,100408.40
2018-07-30T00:21:48.720Z,100409.25
2018-07-30T00:24:16.875Z,100419.27
2018-07-30T00:26:44.891Z,100412.23
2018-07-30T00:29:12.927Z,100413.03
2018-07-30T00:31:40.999Z,100416.84
2018-07-30T00:34:09.066Z,100415.42
2018-07-30T00:36:37.142Z,100422.42
2018-07-30T00:39:08.595Z,100417.52
2018-07-30T00:41:36.698Z,100429.98
2018-07-30T00:44:04.735Z,100411.13
2018-07-30T00:46:32.784Z,100431.33
2018-07-30T00:49:00.827Z,100426.92
2018-07-30T00:51:29.021Z,100432.92
2018-07-30T00:53:57.083Z,100431.86
2018-07-30T00:56:25.150Z,100433.02
2018-07-30T00:58:53.437Z,100430.53
2018-07-30T01:01:21.524Z,100424.84
2018-07-30T01:03:49.611Z,100435.50
2018-07-30T01:06:17.657Z,100432.16
2018-07-30T01:08:45.711Z,100436.00
2018-07-30T01:11:13.764Z,100441.02
2018-07-30T01:13:41.820Z,100439.92
2018-07-30T01:16:09.871Z,100440.30
2018-07-30T01:18:37.926Z,100440.19
2018-07-30T01:21:06.164Z,100442.38
2018-07-30T01:23:34.237Z,100445.23
2018-07-30T01:26:07.716Z,100455.83
2018-07-30T01:28:35.794Z,100456.09
2018-07-30T01:31:03.839Z,100459.78
2018-07-30T01:33:31.923Z,100454.05
2018-07-30T01:35:59.971Z,100453.27
2018-07-30T01:38:28.043Z,100444.47
2018-07-30T01:40:56.105Z,100456.98
2018-07-30T01:43:24.175Z,100452.52
2018-07-30T01:45:52.232Z,100454.36
2018-07-30T01:48:20.287Z,100449.84
2018-07-30T01:50:48.319Z,100449.41
2018-07-30T01:53:16.385Z,100467.90
2018-07-30T01:55:44.441Z,100473.23
2018-07-30T01:58:12.603Z,100465.86
2018-07-30T02:00:40.663Z,100473.63
2018-07-30T02:03:08.729Z,100476.36
2018-07-30T02:05:36.787Z,100478.27
2018-07-30T02:08:05.059Z,100479.53
2018-07-30T02:10:33.127Z,100481.30
2018-07-30T02:13:01.181Z,100484.00
2018-07-30T02:15:29.222Z,100482.30
2018-07-30T02:17:57.299Z,100476.30
2018-07-30T02:20:25.427Z,100479.06
2018-07-30T02:22:53.488Z,100478.45
2018-07-30T02:25:21.567Z,100472.90
2018-07-30T02:27:49.645Z,100485.10
2018-07-30T02:30:17.693Z,100480.63
2018-07-30T02:32:45.744Z,100474.36
2018-07-30T02:35:13.968Z,100479.23
2018-07-30T02:37:42.037Z,100478.17
2018-07-30T02:40:10.205Z,100476.52
2018-07-30T02:42:38.258Z,100471.66
2018-07-30T02:45:06.375Z,100477.70
2018-07-30T02:47:34.447Z,100481.97
2018-07-30T02:50:02.780Z,100482.77
2018-07-30T02:52:31.156Z,100482.61
2018-07-30T02:54:59.212Z,100481.83
2018-07-30T02:57:27.431Z,100479.69
2018-07-30T02:59:55.480Z,100480.41
2018-07-30T03:02:23.529Z,100481.97
2018-07-30T03:04:51.579Z,100475.92
2018-07-30T03:07:19.651Z,100484.59
2018-07-30T03:09:47.895Z,100479.27
2018-07-30T03:12:15.945Z,100483.91
2018-07-30T03:14:44.040Z,100486.27
2018-07-30T03:17:12.079Z,100485.16
2018-07-30T03:19:40.164Z,100485.05
2018-07-30T03:22:08.215Z,100483.80
2018-07-30T03:24:36.323Z,100491.31
2018-07-30T03:27:04.415Z,100494.63
2018-07-30T03:29:32.482Z,100499.50
2018-07-30T03:32:00.521Z,100497.32
2018-07-30T03:34:28.599Z,100499.83
2018-07-30T03:36:56.647Z,100507.30
2018-07-30T03:39:24.707Z,100492.73
2018-07-30T03:41:52.759Z,100498.75
2018-07-30T03:44:20.893Z,100502.09
2018-07-30T03:46:48.927Z,100497.20
2018-07-30T03:49:16.998Z,100489.77
2018-07-30T03:51:45.123Z,100505.14
2018-07-30T03:54:13.195Z,100497.73
2018-07-30T03:56:41.271Z,100501.33
2018-07-30T03:59:09.475Z,100507.20
2018-07-30T04:01:37.519Z,100509.09
2018-07-30T04:04:05.850Z,100509.36
2018-07-30T04:06:34.017Z,100505.05
2018-07-30T04:09:02.140Z,100516.85
2018-07-30T04:11:30.222Z,100511.37
2018-07-30T04:13:58.283Z,100512.43
2018-07-30T04:16:26.522Z,100519.73
2018-07-30T04:18:54.584Z,100521.25
2018-07-30T04:21:22.650Z,100526.33
2018-07-30T04:23:50.714Z,100527.48
2018-07-30T04:26:18.760Z,100531.91
2018-07-30T04:28:46.811Z,100534.62
2018-07-30T04:31:14.886Z,100535.20
2018-07-30T04:33:42.926Z,100527.38
2018-07-30T04:36:10.978Z,100529.20
2018-07-30T04:38:39.047Z,100536.14
2018-07-30T04:41:07.411Z,100536.72
2018-07-30T04:43:35.534Z,100538.08
2018-07-30T04:46:03.583Z,100535.17
2018-07-30T04:48:31.657Z,100536.72
2018-07-30T04:50:59.767Z,100529.63
2018-07-30T04:53:27.809Z,100534.63
2018-07-30T04:55:55.886Z,100526.92
2018-07-30T04:58:23.931Z,100522.86
2018-07-30T05:00:51.987Z,100525.65
2018-07-30T05:03:20.154Z,100530.44
2018-07-30T05:05:48.201Z,100524.03
2018-07-30T05:08:16.300Z,100536.56
2018-07-30T05:10:44.423Z,100529.61
2018-07-30T05:13:12.503Z,100530.80
2018-07-30T05:15:40.665Z,100527.05
2018-07-30T05:18:08.715Z,100534.02
2018-07-30T05:20:36.832Z,100534.37
2018-07-30T05:23:04.908Z,100543.69
2018-07-30T05:25:33.016Z,100534.28
2018-07-30T05:28:01.123Z,100534.94
2018-07-30T05:30:29.178Z,100536.50
2018-07-30T05:32:57.323Z,100534.28
2018-07-30T05:35:25.524Z,100535.34
2018-07-30T05:37:53.575Z,100534.97
2018-07-30T05:40:21.665Z,100542.88
2018-07-30T05:42:49.787Z,100533.85
2018-07-30T05:45:17.849Z,100534.19
2018-07-30T05:47:46.240Z,100534.20
2018-07-30T05:50:14.463Z,100532.66
2018-07-30T05:52:42.759Z,100529.75
2018-07-30T05:55:10.919Z,100534.14
2018-07-30T05:57:39.031Z,100531.11
2018-07-30T06:00:07.471Z,100534.14
2018-07-30T06:02:35.600Z,100536.58
2018-07-30T06:05:03.718Z,100539.03
2018-07-30T06:07:31.823Z,100537.14
2018-07-30T06:09:59.924Z,100543.16
2018-07-30T06:12:27.963Z,100546.70
2018-07-30T06:14:56.123Z,100554.66
2018-07-30T06:17:24.291Z,100557.91
2018-07-30T06:19:52.361Z,100554.35
2018-07-30T06:22:20.445Z,100560.60
2018-07-30T06:24:48.541Z,100567.98
2018-07-30T06:27:16.708Z,100566.87
2018-07-30T06:29:44.754Z,100569.58
2018-07-30T06:32:12.871Z,100569.32
2018-07-30T06:34:40.968Z,100571.70
2018-07-30T06:37:10.472Z,100576.83
2018-07-30T06:39:42.608Z,100570.23
2018-07-30T06:42:10.764Z,100569.41
2018-07-30T06:44:40.587Z,100566.37
2018-07-30T06:47:10.892Z,100566.91
2018-07-30T06:49:47.841Z,100566.30
2018-07-30T06:52:16.844Z,100575.87
2018-07-30T06:54:44.991Z,100566.81
2018-07-30T06:57:13.059Z,100570.10
2018-07-30T06:59:41.170Z,100575.30
2018-07-30T07:02:09.320Z,100576.26
2018-07-30T07:04:37.374Z,100577.54
2018-07-30T07:07:05.454Z,100578.05
2018-07-30T07:09:33.520Z,100575.11
2018-07-30T07:12:01.601Z,100572.81
2018-07-30T07:14:29.659Z,100574.05
2018-07-30T07:16:57.823Z,100570.91
2018-07-30T07:19:25.932Z,100574.03
2018-07-30T07:21:54.062Z,100570.66
2018-07-30T07:24:22.114Z,100573.86
2018-07-30T07:26:50.192Z,100567.28
2018-07-30T07:29:18.291Z,100575.23
2018-07-30T07:31:46.375Z,100578.66
2018-07-30T07:34:14.435Z,100579.19
2018-07-30T07:36:42.519Z,100576.70
2018-07-30T07:39:11.460Z,100584.66
2018-07-30T07:41:39.783Z,100591.30
2018-07-30T07:44:07.903Z,100585.79
2018-07-30T07:46:36.116Z,100591.72
2018-07-30T07:49:04.332Z,100590.00
2018-07-30T07:51:32.515Z,100589.48
2018-07-30T07:54:00.606Z,100591.34
2018-07-30T07:56:28.683Z,100590.50
2018-07-30T07:58:56.847Z,100590.94
2018-07-30T08:01:24.898Z,100585.95
2018-07-30T08:03:53.364Z,100587.92
2018-07-30T08:06:21.589Z,100582.16
2018-07-30T08:08:49.566Z,100581.19
2018-07-30T08:11:17.639Z,100576.24
2018-07-30T08:13:45.795Z,100575.76
2018-07-30T08:16:13.932Z,100577.65
2018-07-30T08:18:42.047Z,100578.92
2018-07-30T08:21:10.135Z,100582.31
2018-07-30T08:23:38.222Z,100580.15
2018-07-30T08:26:06.327Z,100582.80
2018-07-30T08:28:34.492Z,100578.78
2018-07-30T08:31:02.614Z,100576.58
2018-07-30T08:33:30.695Z,100580.18
2018-07-30T08:35:58.779Z,100579.72
2018-07-30T08:38:26.877Z,100581.22
2018-07-30T08:40:54.949Z,100587.25
2018-07-30T08:43:23.040Z,100590.84
2018-07-30T08:45:51.171Z,100588.11
2018-07-30T08:48:19.271Z,100597.16
2018-07-30T08:50:47.552Z,100592.16
2018-07-30T08:53:15.668Z,100593.59
2018-07-30T08:55:43.810Z,100591.85
2018-07-30T08:58:11.916Z,100595.45
2018-07-30T09:00:40.028Z,100589.99
2018-07-30T09:03:08.213Z,100588.14
2018-07-30T09:05:36.547Z,100580.09
2018-07-30T09:08:04.875Z,100579.14
2018-07-30T09:10:32.997Z,100586.31
2018-07-30T09:13:02.972Z,100580.81
2018-07-30T09:15:31.860Z,100578.34
2018-07-30T09:17:59.922Z,100571.32
2018-07-30T09:20:28.071Z,100576.91
2018-07-30T09:22:56.175Z,100570.88
2018-07-30T09:25:24.292Z,100570.30
2018-07-30T09:27:52.344Z,100571.08
2018-07-30T09:30:20.431Z,100564.84
2018-07-30T09:32:48.569Z,100563.28
2018-07-30T09:35:16.723Z,100564.93
2018-07-30T09:37:44.796Z,100565.69
2018-07-30T09:40:12.901Z,100553.47
2018-07-30T09:42:40.936Z,100560.48
2018-07-30T09:45:08.983Z,100555.47
2018-07-30T09:47:37.049Z,100561.98
2018-07-30T09:50:05.431Z,100565.95
2018-07-30T09:52:33.605Z,100555.62
2018-07-30T09:55:01.663Z,100559.80
2018-07-30T09:57:29.745Z,100551.09
2018-07-30T09:59:57.782Z,100552.04
2018-07-30T10:02:25.844Z,100539.08
2018-07-30T10:04:53.906Z,100545.80
2018-07-30T10:07:22.058Z,100547.48
2018-07-30T10:09:50.079Z,100551.06
2018-07-30T10:12:18.247Z,100548.57
2018-07-30T10:14:46.301Z,100541.34
2018-07-30T10:17:14.392Z,100546.92
2018-07-30T10:19:42.484Z,100541.28
2018-07-30T10:22:10.553Z,100542.81
2018-07-30T10:24:38.613Z,100541.36
2018-07-30T10:27:06.659Z,100545.98
2018-07-30T10:29:34.917Z,100530.97
2018-07-30T10:32:02.959Z,100522.38
2018-07-30T10:34:31.086Z,100520.35
2018-07-30T10:36:59.196Z,100526.70
2018-07-30T10:39:27.223Z,100520.14
2018-07-30T10:41:55.551Z,100518.08
2018-07-30T10:44:23.830Z,100516.33
2018-07-30T10:46:51.996Z,100518.24
2018-07-30T10:49:20.138Z,100512.23
2018-07-30T10:51:48.361Z,100515.98
2018-07-30T10:54:16.508Z,100512.95
2018-07-30T10:56:44.583Z,100510.95
2018-07-30T10:59:12.647Z,100508.52
2018-07-30T11:01:40.691Z,100513.08
2018-07-30T11:04:08.770Z,100504.41
2018-07-30T11:06:36.845Z,100507.64
2018-07-30T11:09:07.513Z,100502.91
2018-07-30T11:11:35.595Z,100510.61
2018-07-30T11:14:03.664Z,100509.16
2018-07-30T11:16:31.730Z,100503.69
2018-07-30T11:18:59.770Z,100497.08
2018-07-30T11:21:27.823Z,100498.53
2018-07-30T11:23:56.021Z,100497.30
2018-07-30T11:26:24.074Z,100491.89
2018-07-30T11:28:52.188Z,100489.38
2018-07-30T11:31:20.233Z,100487.87
2018-07-30T11:33:48.306Z,100487.44
2018-07-30T11:36:16.442Z,100485.55
2018-07-30T11:38:44.520Z,100488.28
2018-07-30T11:41:32.726Z,100489.81
2018-07-30T11:44:16.142Z,100490.26
2018-07-30T11:46:56.026Z,100487.95
2018-07-30T11:52:20.009Z,100478.56
2018-07-30T11:54:53.415Z,100468.50
2018-07-30T11:57:40.420Z,100472.61
2018-07-30T12:00:10.729Z,100462.55
2018-07-30T12:02:39.838Z,100458.04
2018-07-30T12:05:24.276Z,100465.33
2018-07-30T12:08:20.274Z,100470.94
2018-07-30T12:10:56.923Z,100466.31
2018-07-30T12:13:48.240Z,100458.69
2018-07-30T12:16:22.903Z,100458.03
2018-07-30T12:19:06.755Z,100452.73
2018-07-30T12:21:37.046Z,100453.95
2018-07-30T12:28:25.220Z,100437.64
2018-07-30T12:31:10.661Z,100438.86
2018-07-30T12:34:02.323Z,100449.30
2018-07-30T12:36:31.968Z,100442.45
2018-07-30T12:39:17.462Z,100445.77
2018-07-30T12:41:56.624Z,100443.01
2018-07-30T12:45:13.736Z,100440.69
2018-07-30T12:47:47.551Z,100438.83
2018-07-30T12:50:29.215Z,100435.39
2018-07-30T12:55:54.276Z,100430.52
2018-07-30T12:58:28.560Z,100431.90
2018-07-30T13:01:01.260Z,100424.35
2018-07-30T13:03:31.327Z,100417.98
2018-07-30T13:10:00.236Z,100426.20
2018-07-30T13:12:31.496Z,100419.61
2018-07-30T13:15:11.267Z,100412.41
2018-07-30T13:17:58.663Z,100409.49
2018-07-30T13:20:32.049Z,100403.36
2018-07-30T13:23:20.182Z,100402.55
2018-07-30T13:25:50.633Z,100397.13
2018-07-30T13:31:29.436Z,100401.59
2018-07-30T13:34:07.332Z,100393.58
2018-07-30T13:36:35.478Z,100392.77
2018-07-30T13:39:03.928Z,100391.75
2018-07-30T13:41:32.015Z,100389.74
2018-07-30T13:44:00.091Z,100392.56
2018-07-30T13:46:28.218Z,100395.05
2018-07-30T13:48:56.218Z,100386.47
2018-07-30T13:51:24.322Z,100387.84
2018-07-30T13:53:52.432Z,100386.01
2018-07-30T13:56:20.483Z,100379.55
2018-07-30T13:58:48.555Z,100381.70
2018-07-30T14:01:16.647Z,100384.52
2018-07-30T14:03:44.729Z,100389.80
2018-07-30T14:06:12.932Z,100385.56
2018-07-30T14:08:40.905Z,100384.17
2018-07-30T14:11:09.190Z,100381.31
2018-07-30T14:13:37.283Z,100376.39
2018-07-30T14:16:05.427Z,100370.09
2018-07-30T14:18:33.506Z,100378.34
2018-07-30T14:21:01.571Z,100380.69
2018-07-30T14:23:29.649Z,100382.68
2018-07-30T14:25:57.721Z,100375.09
2018-07-30T14:28:25.875Z,100366.85
2018-07-30T14:30:53.890Z,100368.24
2018-07-30T14:33:22.030Z,100368.00
2018-07-30T14:35:50.091Z,100368.66
2018-07-30T14:38:18.150Z,100374.62
2018-07-30T14:40:46.205Z,100368.61
2018-07-30T14:43:14.289Z,100364.70
2018-07-30T14:45:42.328Z,100368.05
2018-07-30T14:48:10.385Z,100369.66
2018-07-30T14:50:38.583Z,100367.36
2018-07-30T14:53:06.754Z,100366.57
2018-07-30T14:55:34.856Z,100364.59
2018-07-30T14:58:03.008Z,100355.30
2018-07-30T15:00:31.130Z,100362.23
2018-07-30T15:02:59.239Z,100350.70
2018-07-30T15:05:27.367Z,100350.78
2018-07-30T15:07:55.460Z,100346.21
2018-07-30T15:10:23.569Z,100346.21
2018-07-30T15:12:51.655Z,100343.41
2018-07-30T15:15:19.719Z,100344.19
2018-07-30T15:17:47.793Z,100344.53
2018-07-30T15:20:15.846Z,100343.89
2018-07-30T15:22:44.426Z,100349.27
2018-07-30T15:25:12.589Z,100345.27
2018-07-30T15:27:40.679Z,100345.64
2018-07-30T15:30:08.776Z,100344.91
2018-07-30T15:32:36.872Z,100336.69
2018-07-30T15:35:04.963Z,100341.34
2018-07-30T15:37:33.226Z,100340.33
2018-07-30T15:40:01.540Z,100337.34
2018-07-30T15:42:29.757Z,100330.56
2018-07-30T15:44:57.922Z,100333.66
2018-07-30T15:47:26.015Z,100336.20
2018-07-30T15:49:54.083Z,100339.08
2018-07-30T15:52:22.268Z,100335.44
2018-07-30T15:54:50.516Z,100340.56
2018-07-30T15:57:18.499Z,100334.50
2018-07-30T15:59:46.623Z,100336.55
2018-07-30T16:02:14.737Z,100330.98
2018-07-30T16:04:46.141Z,100331.84
2018-07-30T16:07:14.689Z,100337.95
2018-07-30T16:09:42.803Z,100337.69
2018-07-30T16:12:11.060Z,100328.58
2018-07-30T16:14:39.094Z,100330.17
2018-07-30T16:17:07.151Z,100334.47
2018-07-30T16:19:35.247Z,100335.36
2018-07-30T16:22:03.338Z,100337.20
2018-07-30T16:24:31.608Z,100333.87
2018-07-30T16:26:59.684Z,100327.08
2018-07-30T16:29:27.746Z,100331.50
2018-07-30T16:31:55.845Z,100331.25
2018-07-30T16:34:23.967Z,100326.66
2018-07-30T16:36:52.021Z,100328.52
2018-07-30T16:39:20.091Z,100325.23
2018-07-30T16:41:48.168Z,100327.23
2018-07-30T16:44:16.274Z,100325.16
2018-07-30T16:46:44.356Z,100327.66
2018-07-30T16:49:12.406Z,100334.43
2018-07-30T16:51:40.460Z,100334.66
2018-07-30T16:54:08.531Z,100331.48
2018-07-30T16:56:36.577Z,100334.64
2018-07-30T16:59:04.671Z,100324.16
2018-07-30T17:01:32.728Z,100320.25
2018-07-30T17:04:00.822Z,100323.77
2018-07-30T17:06:28.874Z,100326.38
2018-07-30T17:08:56.982Z,100330.11
2018-07-30T17:11:25.051Z,100328.25
2018-07-30T17:13:53.184Z,100326.36
2018-07-30T17:16:21.258Z,100329.20
2018-07-30T17:18:49.342Z,100331.68
2018-07-30T17:21:17.548Z,100325.81
2018-07-30T17:23:45.671Z,100321.52
2018-07-30T17:26:13.722Z,100326.42
2018-07-30T17:28:41.803Z,100330.81
2018-07-30T17:31:09.879Z,100329.16
2018-07-30T17:33:38.062Z,100335.98
2018-07-30T17:36:06.144Z,100331.65
2018-07-30T17:38:34.226Z,100340.72
2018-07-30T17:41:02.453Z,100333.38
2018-07-30T17:43:30.523Z,100343.41
2018-07-30T17:45:58.614Z,100339.47
2018-07-30T17:48:26.681Z,100339.39
2018-07-30T17:53:34.429Z,100334.33
2018-07-30T17:56:14.875Z,100334.34
2018-07-30T17:58:48.352Z,100335.50
2018-07-30T18:01:17.554Z,100335.44
2018-07-30T18:03:48.091Z,100332.52
2018-07-30T18:06:16.986Z,100343.17
2018-07-30T18:08:46.336Z,100342.98
2018-07-30T18:11:16.743Z,100346.09
2018-07-30T18:14:02.542Z,100344.05
2018-07-30T18:19:07.877Z,100348.31
2018-07-30T18:21:46.095Z,100353.84
2018-07-30T18:24:14.896Z,100352.20
2018-07-30T18:26:44.608Z,100353.07
2018-07-30T18:29:12.947Z,100354.19
2018-07-30T18:31:47.051Z,100354.30
2018-07-30T18:34:22.486Z,100352.62
2018-07-30T18:36:52.643Z,100357.36
2018-07-30T18:39:22.646Z,100358.70
2018-07-30T18:41:52.262Z,100355.52
2018-07-30T18:44:32.803Z,100359.73
2018-07-30T18:47:01.914Z,100362.52
2018-07-30T18:49:30.701Z,100366.34
2018-07-30T18:52:01.247Z,100367.46
2018-07-30T18:54:32.213Z,100370.62
2018-07-30T18:57:05.731Z,100370.36
2018-07-30T18:59:39.143Z,100372.98
2018-07-30T19:02:07.790Z,100369.64
2018-07-30T19:04:37.873Z,100380.80
2018-07-30T19:07:09.075Z,100384.03
2018-07-30T19:09:37.270Z,100386.86
2018-07-30T19:12:07.020Z,100388.52
2018-07-30T19:14:35.219Z,100389.75
2018-07-30T19:17:03.916Z,100389.68
2018-07-30T19:19:33.682Z,100392.44
2018-07-30T19:22:04.904Z,100398.32
2018-07-30T19:24:36.065Z,100393.30
2018-07-30T19:27:04.251Z,100386.45
2018-07-30T19:29:33.551Z,100393.26
2018-07-30T19:32:06.155Z,100395.77
2018-07-30T19:34:34.397Z,100401.41
2018-07-30T19:37:04.321Z,100403.87
2018-07-30T19:39:34.262Z,100408.38
2018-07-30T19:42:03.394Z,100405.97
2018-07-30T19:44:39.306Z,100412.39
2018-07-30T19:47:08.057Z,100411.81
2018-07-30T19:49:42.271Z,100412.25
2018-07-30T19:52:12.290Z,100423.02
2018-07-30T19:54:52.690Z,100420.09
2018-07-30T19:57:30.535Z,100425.78
2018-07-30T20:00:04.435Z,100424.19
2018-07-30T20:02:33.394Z,100426.86
2018-07-30T20:05:09.063Z,100422.27
2018-07-30T20:07:45.256Z,100429.33
2018-07-30T20:10:17.025Z,100433.16
2018-07-30T20:12:46.252Z,100431.38
2018-07-30T20:15:27.154Z,100427.41
2018-07-30T20:17:55.977Z,100436.87
2018-07-30T20:20:45.899Z,100433.55
2018-07-30T20:23:20.543Z,100431.23
2018-07-30T20:28:40.740Z,100442.42
2018-07-30T20:31:17.267Z,100436.38
2018-07-30T20:33:47.838Z,100443.08
2018-07-30T20:38:58.152Z,100442.11
2018-07-30T20:41:29.710Z,100444.16
2018-07-30T20:43:59.268Z,100451.27
2018-07-30T20:46:27.783Z,100450.11
2018-07-30T20:48:59.715Z,100452.10
2018-07-30T20:51:30.140Z,100452.95
2018-07-30T20:53:59.938Z,100457.73
2018-07-30T20:56:29.924Z,100453.59
2018-07-30T20:58:59.146Z,100456.90
2018-07-30T21:01:31.042Z,100455.50
2018-07-30T21:04:08.744Z,100459.33
2018-07-30T21:06:42.322Z,100463.01
2018-07-30T21:11:55.611Z,100457.85
2018-07-30T21:14:47.724Z,100458.70
2018-07-30T21:17:17.690Z,100465.45
2018-07-30T21:19:52.660Z,100457.77
2018-07-30T21:22:20.999Z,100463.43
2018-07-30T21:25:23.836Z,100469.44
2018-07-30T21:28:19.568Z,100469.40
2018-07-30T21:33:47.595Z,100469.09
2018-07-30T21:36:24.589Z,100467.44
2018-07-30T21:38:57.379Z,100468.76
2018-07-30T21:41:33.376Z,100462.55
2018-07-30T21:44:10.944Z,100471.49
2018-07-30T21:46:41.703Z,100463.72
2018-07-30T21:49:09.769Z,100467.51
2018-07-30T21:51:37.836Z,100463.75
2018-07-30T21:54:06.149Z,100466.23
2018-07-30T21:56:34.148Z,100460.97
2018-07-30T21:59:02.281Z,100461.55
2018-07-30T22:01:30.339Z,100455.78
2018-07-30T22:03:59.478Z,100456.31
2018-07-30T22:06:27.543Z,100460.41
2018-07-30T22:08:57.237Z,100463.51
2018-07-30T22:11:25.546Z,100464.33
2018-07-30T22:13:53.623Z,100466.60
2018-07-30T22:16:21.702Z,100463.72
2018-07-30T22:18:49.783Z,100466.68
2018-07-30T22:21:17.924Z,100463.66
2018-07-30T22:23:45.990Z,100461.83
2018-07-30T22:26:14.060Z,100462.66
2018-07-30T22:28:42.181Z,100461.09
2018-07-30T22:31:10.308Z,100465.45
2018-07-30T22:33:38.415Z,100463.54
2018-07-30T22:36:06.487Z,100464.08
2018-07-30T22:38:34.531Z,100467.93
2018-07-30T22:41:02.651Z,100465.50
2018-07-30T22:43:30.745Z,100469.94
2018-07-30T22:45:58.891Z,100467.70
2018-07-30T22:48:26.930Z,100471.27
2018-07-30T22:50:55.427Z,100472.38
2018-07-30T22:53:23.494Z,100475.14
2018-07-30T22:55:51.603Z,100471.62
2018-07-30T22:58:19.671Z,100471.62
2018-07-30T23:00:48.674Z,100467.23
2018-07-30T23:03:16.753Z,100469.20
2018-07-30T23:05:44.787Z,100466.72
2018-07-30T23:08:12.849Z,100466.75
2018-07-30T23:10:41.740Z,100471.95
2018-07-30T23:13:09.793Z,100470.87
2018-07-30T23:15:37.951Z,100463.77
2018-07-30T23:18:06.044Z,100463.48
2018-07-30T23:20:34.207Z,100464.56
2018-07-30T23:23:02.305Z,100467.56
2018-07-30T23:25:30.395Z,100468.11
2018-07-30T23:27:58.518Z,100475.20
2018-07-30T23:30:26.576Z,100466.21
2018-07-30T23:32:54.651Z,100470.31
2018-07-30T23:35:22.715Z,100470.84
2018-07-30T23:37:50.985Z,100466.22
2018-07-30T23:40:19.070Z,100459.40
2018-07-30T23:42:47.227Z,100460.20
2018-07-30T23:45:15.292Z,100459.14
2018-07-30T23:47:43.357Z,100458.30
2018-07-30T23:50:11.431Z,100453.94
2018-07-30T23:52:39.494Z,100458.25
2018-07-30T23:55:07.637Z,100460.42
2018-07-30T23:57:35.622Z,100454.44
